Terminal Aerodrome Forecast
Issued by NWS

Home | Current Version | Previous Version | Text Only | Print | Product List | Glossary On
Versions: 1 2 3 4 5 6 7 8 9 10 11 12 13 14 15 16 17 18 19 20 21 22 23 24 25 26 27 28 29 30 31 32 33 34 35 36 37 38 39 40
000
FTUS43 KMKX 250520
TAFENW
TAF
KENW 250520Z 2506/2606 19004KT P6SM SCT120 SCT250
     FM251400 19008KT P6SM BKN090
     FM251900 18012KT P6SM VCTS SCT040CB BKN060
     FM252200 18009KT P6SM BKN050
     FM260200 18007KT P6SM VCTS OVC040CB=

USA.gov is the U.S. government's official web portal to all federal, state and local government web resources and services.